sensor_id;sensor_type;location;lat;lon;timestamp;pressure;altitude;pressure_sealevel;temperature;humidity
2294;BME280;1155;42.644;23.264;2023-03-23T11:11:50;60361.72;;;-140.67;20.92
2294;BME280;1155;42.644;23.264;2023-03-23T11:14:24;60357.63;;;-140.67;20.20
2294;BME280;1155;42.644;23.264;2023-03-23T11:16:54;60357.63;;;-140.67;21.98
2294;BME280;1155;42.644;23.264;2023-03-23T11:19:22;60386.28;;;-140.67;21.06
2294;BME280;1155;42.644;23.264;2023-03-23T11:21:51;60443.63;;;-140.67;19.59
2294;BME280;1155;42.644;23.264;2023-03-23T11:24:21;60449.78;;;-140.67;19.14
2294;BME280;1155;42.644;23.264;2023-03-23T11:27:04;60425.19;;;-140.67;19.72
2294;BME280;1155;42.644;23.264;2023-03-23T11:29:35;60412.91;;;-140.67;20.01
2294;BME280;1155;42.644;23.264;2023-03-23T11:32:04;60419.06;;;-140.67;19.51
2294;BME280;1155;42.644;23.264;2023-03-23T11:34:34;60400.63;;;-140.67;19.81
2294;BME280;1155;42.644;23.264;2023-03-23T11:37:03;60433.41;;;-140.67;19.06
2294;BME280;1155;42.644;23.264;2023-03-23T11:39:34;60552.19;;;-140.67;18.16
2294;BME280;1155;42.644;23.264;2023-03-23T11:42:19;60570.59;;;-140.67;18.31
2294;BME280;1155;42.644;23.264;2023-03-23T11:44:46;60572.66;;;-140.67;16.88
2294;BME280;1155;42.644;23.264;2023-03-23T11:47:26;60548.06;;;-140.67;17.70
2294;BME280;1155;42.644;23.264;2023-03-23T11:50:04;60412.91;;;-140.67;19.19
2294;BME280;1155;42.644;23.264;2023-03-23T11:52:41;60441.59;;;-140.67;18.75
2294;BME280;1155;42.644;23.264;2023-03-23T11:55:14;60462.06;;;-140.67;19.00
2294;BME280;1155;42.644;23.264;2023-03-23T11:57:42;60515.31;;;-140.67;18.36
2294;BME280;1155;42.644;23.264;2023-03-23T12:00:15;60519.41;;;-140.67;16.18
2294;BME280;1155;42.644;23.264;2023-03-23T12:05:44;60480.50;;;-140.67;18.02
2294;BME280;1155;42.644;23.264;2023-03-23T12:08:34;60425.19;;;-140.67;18.00
2294;BME280;1155;42.644;23.264;2023-03-23T12:11:11;60367.88;;;-140.67;19.50
2294;BME280;1155;42.644;23.264;2023-03-23T12:13:56;60478.44;;;-140.67;19.14
2294;BME280;1155;42.644;23.264;2023-03-23T12:16:38;60580.84;;;-140.67;16.97
2294;BME280;1155;42.644;23.264;2023-03-23T12:19:14;60478.44;;;-140.67;19.24
2294;BME280;1155;42.644;23.264;2023-03-23T12:21:51;60558.31;;;-140.67;17.86
2294;BME280;1155;42.644;23.264;2023-03-23T12:24:30;60562.41;;;-140.67;16.58
2294;BME280;1155;42.644;23.264;2023-03-23T12:27:05;60550.13;;;-140.67;16.79
2294;BME280;1155;42.644;23.264;2023-03-23T12:29:49;60595.19;;;-140.67;16.45
2294;BME280;1155;42.644;23.264;2023-03-23T12:32:45;60634.09;;;-140.67;15.57
2294;BME280;1155;42.644;23.264;2023-03-23T12:35:32;60711.91;;;-140.67;14.95
2294;BME280;1155;42.644;23.264;2023-03-23T12:38:13;60687.34;;;-140.67;14.80
2294;BME280;1155;42.644;23.264;2023-03-23T12:40:58;60767.22;;;-140.67;14.82
2294;BME280;1155;42.644;23.264;2023-03-23T12:43:33;60644.34;;;-140.67;14.90
2294;BME280;1155;42.644;23.264;2023-03-23T12:46:25;60634.09;;;-140.67;15.05
2294;BME280;1155;42.644;23.264;2023-03-23T12:48:59;60638.19;;;-140.67;15.51
2294;BME280;1155;42.644;23.264;2023-03-23T12:51:31;60636.13;;;-140.67;15.06
2294;BME280;1155;42.644;23.264;2023-03-23T12:54:07;60591.09;;;-140.67;16.29
2294;BME280;1155;42.644;23.264;2023-03-23T12:56:40;60580.84;;;-140.67;15.82
2294;BME280;1155;42.644;23.264;2023-03-23T12:59:17;60634.09;;;-140.67;15.18
2294;BME280;1155;42.644;23.264;2023-03-23T13:01:52;60681.19;;;-140.67;14.56
2294;BME280;1155;42.644;23.264;2023-03-23T13:04:26;60560.38;;;-140.67;15.44
2294;BME280;1155;42.644;23.264;2023-03-23T13:06:54;60611.56;;;-140.67;15.30
2294;BME280;1155;42.644;23.264;2023-03-23T13:09:39;60675.06;;;-140.67;15.47
2294;BME280;1155;42.644;23.264;2023-03-23T13:12:09;60738.53;;;-140.67;14.74
2294;BME280;1155;42.644;23.264;2023-03-23T13:14:42;60716.00;;;-140.67;15.05
2294;BME280;1155;42.644;23.264;2023-03-23T13:17:26;60691.44;;;-140.67;15.30
2294;BME280;1155;42.644;23.264;2023-03-23T13:23:09;60615.66;;;-140.67;14.99
2294;BME280;1155;42.644;23.264;2023-03-23T13:25:49;60632.03;;;-140.67;14.93
2294;BME280;1155;42.644;23.264;2023-03-23T13:28:17;60609.50;;;-140.67;14.96
2294;BME280;1155;42.644;23.264;2023-03-23T13:31:11;60521.47;;;-140.67;15.71
2294;BME280;1155;42.644;23.264;2023-03-23T13:33:46;60515.31;;;-140.67;16.82
2294;BME280;1155;42.644;23.264;2023-03-23T13:36:14;60482.53;;;-140.67;16.53
2294;BME280;1155;42.644;23.264;2023-03-23T13:38:46;60492.78;;;-140.67;16.97
2294;BME280;1155;42.644;23.264;2023-03-23T13:41:15;60535.78;;;-140.67;16.69
2294;BME280;1155;42.644;23.264;2023-03-23T13:43:43;60576.75;;;-140.67;15.14
2294;BME280;1155;42.644;23.264;2023-03-23T13:46:23;60597.22;;;-140.67;15.70
2294;BME280;1155;42.644;23.264;2023-03-23T13:49:17;60658.66;;;-140.67;15.36
2294;BME280;1155;42.644;23.264;2023-03-23T13:51:56;60601.31;;;-140.67;15.76
2294;BME280;1155;42.644;23.264;2023-03-23T13:54:30;60634.09;;;-140.67;15.85
2294;BME280;1155;42.644;23.264;2023-03-23T13:56:59;60572.66;;;-140.67;15.62
2294;BME280;1155;42.644;23.264;2023-03-23T13:59:35;60640.22;;;-140.67;14.99
2294;BME280;1155;42.644;23.264;2023-03-23T14:02:30;60644.34;;;-140.67;15.28
2294;BME280;1155;42.644;23.264;2023-03-23T14:07:56;60648.44;;;-140.67;15.33
2294;BME280;1155;42.644;23.264;2023-03-23T14:10:30;60662.75;;;-140.67;14.98
2294;BME280;1155;42.644;23.264;2023-03-23T14:12:58;60615.66;;;-140.67;15.82
2294;BME280;1155;42.644;23.264;2023-03-23T14:15:28;60615.66;;;-140.67;15.40
2294;BME280;1155;42.644;23.264;2023-03-23T14:17:56;60634.09;;;-140.67;15.51
2294;BME280;1155;42.644;23.264;2023-03-23T14:20:30;60613.63;;;-140.67;15.38
2294;BME280;1155;42.644;23.264;2023-03-23T14:22:59;60578.78;;;-140.67;15.43
2294;BME280;1155;42.644;23.264;2023-03-23T14:25:27;60619.75;;;-140.67;15.19
2294;BME280;1155;42.644;23.264;2023-03-23T14:27:55;60589.03;;;-140.67;15.84
2294;BME280;1155;42.644;23.264;2023-03-23T14:30:24;60576.75;;;-140.67;15.95
2294;BME280;1155;42.644;23.264;2023-03-23T14:32:51;60627.94;;;-140.67;15.24
2294;BME280;1155;42.644;23.264;2023-03-23T14:35:23;60576.75;;;-140.67;15.11
2294;BME280;1155;42.644;23.264;2023-03-23T14:37:55;60554.22;;;-140.67;16.42
2294;BME280;1155;42.644;23.264;2023-03-23T14:40:37;60613.63;;;-140.67;15.33
2294;BME280;1155;42.644;23.264;2023-03-23T14:43:03;60478.44;;;-140.67;16.63
2294;BME280;1155;42.644;23.264;2023-03-23T14:45:31;60490.75;;;-140.67;16.79
2294;BME280;1155;42.644;23.264;2023-03-23T14:48:00;60457.97;;;-140.67;16.76
2294;BME280;1155;42.644;23.264;2023-03-23T14:50:30;60423.16;;;-140.67;17.66
2294;BME280;1155;42.644;23.264;2023-03-23T14:53:02;60410.88;;;-140.67;17.89
2294;BME280;1155;42.644;23.264;2023-03-23T14:55:31;60412.91;;;-140.67;18.63
2294;BME280;1155;42.644;23.264;2023-03-23T14:58:06;60404.72;;;-140.67;18.82
2294;BME280;1155;42.644;23.264;2023-03-23T15:00:36;60388.34;;;-140.67;18.90
2294;BME280;1155;42.644;23.264;2023-03-23T15:03:07;60310.53;;;-140.67;20.07
2294;BME280;1155;42.644;23.264;2023-03-23T15:05:40;60228.63;;;-140.67;22.72
2294;BME280;1155;42.644;23.264;2023-03-23T15:08:18;60199.94;;;-140.67;24.99
2294;BME280;1155;42.644;23.264;2023-03-23T15:10:52;60199.94;;;-140.67;25.89
2294;BME280;1155;42.644;23.264;2023-03-23T15:13:19;60185.59;;;-140.67;27.47
2294;BME280;1155;42.644;23.264;2023-03-23T15:15:47;60163.09;;;-140.67;28.52
2294;BME280;1155;42.644;23.264;2023-03-23T15:18:30;60142.59;;;-140.67;29.45
2294;BME280;1155;42.644;23.264;2023-03-23T15:20:57;60109.84;;;-140.67;30.47
2294;BME280;1155;42.644;23.264;2023-03-23T15:23:29;60134.41;;;-140.67;31.39
2294;BME280;1155;42.644;23.264;2023-03-23T15:25:57;60138.50;;;-140.67;32.53
2294;BME280;1155;42.644;23.264;2023-03-23T15:28:29;60109.84;;;-140.67;33.23
2294;BME280;1155;42.644;23.264;2023-03-23T15:31:01;60148.75;;;-140.67;34.62
2294;BME280;1155;42.644;23.264;2023-03-23T15:33:34;60136.47;;;-140.67;35.85
2294;BME280;1155;42.644;23.264;2023-03-23T15:36:06;60163.09;;;-140.67;36.70
2294;BME280;1155;42.644;23.264;2023-03-23T15:38:35;60122.13;;;-140.67;37.67
2294;BME280;1155;42.644;23.264;2023-03-23T15:41:04;60124.19;;;-140.67;38.92
2294;BME280;1155;42.644;23.264;2023-03-23T15:43:32;60105.75;;;-140.67;40.59
2294;BME280;1155;42.644;23.264;2023-03-23T15:46:02;60138.50;;;-140.67;41.92
2294;BME280;1155;42.644;23.264;2023-03-23T15:48:30;60124.19;;;-140.67;44.09
2294;BME280;1155;42.644;23.264;2023-03-23T15:50:57;60126.22;;;-140.67;45.22
2294;BME280;1155;42.644;23.264;2023-03-23T15:53:29;60146.72;;;-140.67;47.89
2294;BME280;1155;42.644;23.264;2023-03-23T15:56:00;60097.56;;;-140.67;48.28
2294;BME280;1155;42.644;23.264;2023-03-23T15:58:28;60130.31;;;-140.67;49.36
2294;BME280;1155;42.644;23.264;2023-03-23T16:00:55;60113.94;;;-140.67;49.93
2294;BME280;1155;42.644;23.264;2023-03-23T16:03:25;60134.41;;;-140.67;55.25
2294;BME280;1155;42.644;23.264;2023-03-23T16:05:53;60138.50;;;-140.67;57.78
2294;BME280;1155;42.644;23.264;2023-03-23T16:08:21;60122.13;;;-140.67;61.78
2294;BME280;1155;42.644;23.264;2023-03-23T16:10:48;60128.28;;;-140.67;57.93
2294;BME280;1155;42.644;23.264;2023-03-23T16:13:17;60118.03;;;-140.67;60.65
2294;BME280;1155;42.644;23.264;2023-03-23T16:15:45;60093.47;;;-140.67;59.86
2294;BME280;1155;42.644;23.264;2023-03-23T16:18:17;60122.13;;;-140.67;65.00
2294;BME280;1155;42.644;23.264;2023-03-23T16:20:45;60116.00;;;-140.67;68.03
2294;BME280;1155;42.644;23.264;2023-03-23T16:23:12;60138.50;;;-140.67;67.18
2294;BME280;1155;42.644;23.264;2023-03-23T16:25:39;60087.31;;;-140.67;74.22
2294;BME280;1155;42.644;23.264;2023-03-23T16:28:09;60113.94;;;-140.67;74.64
2294;BME280;1155;42.644;23.264;2023-03-23T16:30:39;60118.03;;;-140.67;80.58
2294;BME280;1155;42.644;23.264;2023-03-23T16:33:06;60134.41;;;-140.67;78.98
2294;BME280;1155;42.644;23.264;2023-03-23T16:35:33;60122.13;;;-140.67;83.45
2294;BME280;1155;42.644;23.264;2023-03-23T16:38:01;60113.94;;;-140.67;79.58
2294;BME280;1155;42.644;23.264;2023-03-23T16:40:28;60093.47;;;-140.67;79.06
2294;BME280;1155;42.644;23.264;2023-03-23T16:42:55;60113.94;;;-140.67;80.69
2294;BME280;1155;42.644;23.264;2023-03-23T16:45:22;60111.91;;;-140.67;80.11
2294;BME280;1155;42.644;23.264;2023-03-23T16:47:52;60101.66;;;-140.67;69.24
2294;BME280;1155;42.644;23.264;2023-03-23T16:50:21;60111.91;;;-140.67;72.97
2294;BME280;1155;42.644;23.264;2023-03-23T16:52:48;60124.19;;;-140.67;80.90
2294;BME280;1155;42.644;23.264;2023-03-23T16:55:15;60120.09;;;-140.67;70.95
2294;BME280;1155;42.644;23.264;2023-03-23T16:57:42;60118.03;;;-140.67;69.45
2294;BME280;1155;42.644;23.264;2023-03-23T17:00:12;60116.00;;;-140.67;73.90
2294;BME280;1155;42.644;23.264;2023-03-23T17:02:40;60113.94;;;-140.67;88.91
2294;BME280;1155;42.644;23.264;2023-03-23T17:05:09;60150.81;;;-140.67;82.26
2294;BME280;1155;42.644;23.264;2023-03-23T17:07:36;60101.66;;;-140.67;72.54
2294;BME280;1155;42.644;23.264;2023-03-23T17:10:04;60101.66;;;-140.67;67.00
2294;BME280;1155;42.644;23.264;2023-03-23T17:12:32;60122.13;;;-140.67;63.08
2294;BME280;1155;42.644;23.264;2023-03-23T17:14:59;60099.59;;;-140.67;65.10
2294;BME280;1155;42.644;23.264;2023-03-23T17:17:26;60105.75;;;-140.67;64.59
2294;BME280;1155;42.644;23.264;2023-03-23T17:19:53;60109.84;;;-140.67;61.57
2294;BME280;1155;42.644;23.264;2023-03-23T17:22:22;60113.94;;;-140.67;61.90
2294;BME280;1155;42.644;23.264;2023-03-23T17:24:49;60105.75;;;-140.67;64.50
2294;BME280;1155;42.644;23.264;2023-03-23T17:27:18;60126.22;;;-140.67;62.87
2294;BME280;1155;42.644;23.264;2023-03-23T17:29:45;60124.19;;;-140.67;67.07
2294;BME280;1155;42.644;23.264;2023-03-23T17:32:13;60105.75;;;-140.67;76.13
2294;BME280;1155;42.644;23.264;2023-03-23T17:34:40;60138.50;;;-140.67;60.60
2294;BME280;1155;42.644;23.264;2023-03-23T17:37:07;60118.03;;;-140.67;60.38
2294;BME280;1155;42.644;23.264;2023-03-23T17:39:36;60109.84;;;-140.67;58.57
2294;BME280;1155;42.644;23.264;2023-03-23T17:42:03;60116.00;;;-140.67;57.66
2294;BME280;1155;42.644;23.264;2023-03-23T17:44:30;60101.66;;;-140.67;56.93
2294;BME280;1155;42.644;23.264;2023-03-23T17:46:58;60111.91;;;-140.67;54.58
2294;BME280;1155;42.644;23.264;2023-03-23T17:49:26;60113.94;;;-140.67;55.71
2294;BME280;1155;42.644;23.264;2023-03-23T17:51:54;60113.94;;;-140.67;57.21
2294;BME280;1155;42.644;23.264;2023-03-23T17:54:21;60101.66;;;-140.67;54.63
2294;BME280;1155;42.644;23.264;2023-03-23T17:56:51;60105.75;;;-140.67;58.95
2294;BME280;1155;42.644;23.264;2023-03-23T17:59:18;60101.66;;;-140.67;58.31
2294;BME280;1155;42.644;23.264;2023-03-23T18:01:46;60138.50;;;-140.67;59.25
2294;BME280;1155;42.644;23.264;2023-03-23T18:04:14;60109.84;;;-140.67;60.30
2294;BME280;1155;42.644;23.264;2023-03-23T18:06:41;60118.03;;;-140.67;60.33
2294;BME280;1155;42.644;23.264;2023-03-23T18:09:08;60113.94;;;-140.67;59.05
2294;BME280;1155;42.644;23.264;2023-03-23T18:11:35;60081.19;;;-140.67;57.86
2294;BME280;1155;42.644;23.264;2023-03-23T18:14:03;60105.75;;;-140.67;57.39
2294;BME280;1155;42.644;23.264;2023-03-23T18:16:30;60113.94;;;-140.67;55.66
2294;BME280;1155;42.644;23.264;2023-03-23T18:18:57;60103.69;;;-140.67;58.24
2294;BME280;1155;42.644;23.264;2023-03-23T18:21:25;60101.66;;;-140.67;56.46
2294;BME280;1155;42.644;23.264;2023-03-23T18:23:52;60122.13;;;-140.67;55.81
2294;BME280;1155;42.644;23.264;2023-03-23T18:26:20;60097.56;;;-140.67;57.26
2294;BME280;1155;42.644;23.264;2023-03-23T18:28:49;60130.31;;;-140.67;59.24
2294;BME280;1155;42.644;23.264;2023-03-23T18:31:18;60118.03;;;-140.67;59.25
2294;BME280;1155;42.644;23.264;2023-03-23T18:33:47;60118.03;;;-140.67;59.46
2294;BME280;1155;42.644;23.264;2023-03-23T18:36:16;60101.66;;;-140.67;57.71
2294;BME280;1155;42.644;23.264;2023-03-23T18:38:43;60085.28;;;-140.67;56.35
2294;BME280;1155;42.644;23.264;2023-03-23T18:41:12;60128.28;;;-140.67;59.50
2294;BME280;1155;42.644;23.264;2023-03-23T18:43:39;60097.56;;;-140.67;55.40
2294;BME280;1155;42.644;23.264;2023-03-23T18:46:06;60105.75;;;-140.67;59.18
2294;BME280;1155;42.644;23.264;2023-03-23T18:48:35;60140.56;;;-140.67;56.99
2294;BME280;1155;42.644;23.264;2023-03-23T18:51:02;60097.56;;;-140.67;56.26
2294;BME280;1155;42.644;23.264;2023-03-23T18:53:31;60083.22;;;-140.67;56.09
2294;BME280;1155;42.644;23.264;2023-03-23T18:56:06;60095.50;;;-140.67;58.36
2294;BME280;1155;42.644;23.264;2023-03-23T18:58:33;60113.94;;;-140.67;64.00
2294;BME280;1155;42.644;23.264;2023-03-23T19:01:05;60109.84;;;-140.67;66.74
2294;BME280;1155;42.644;23.264;2023-03-23T19:03:32;60107.78;;;-140.67;63.31
2294;BME280;1155;42.644;23.264;2023-03-23T19:06:01;60079.13;;;-140.67;69.67
2294;BME280;1155;42.644;23.264;2023-03-23T19:08:29;60095.50;;;-140.67;72.07
2294;BME280;1155;42.644;23.264;2023-03-23T19:10:58;60124.19;;;-140.67;71.34
2294;BME280;1155;42.644;23.264;2023-03-23T19:13:26;60089.38;;;-140.67;75.95
2294;BME280;1155;42.644;23.264;2023-03-23T19:15:53;60109.84;;;-140.67;78.14
2294;BME280;1155;42.644;23.264;2023-03-23T19:18:20;60089.38;;;-140.67;79.36
2294;BME280;1155;42.644;23.264;2023-03-23T19:20:47;60103.69;;;-140.67;77.63
2294;BME280;1155;42.644;23.264;2023-03-23T19:23:17;60120.09;;;-140.67;71.82
2294;BME280;1155;42.644;23.264;2023-03-23T19:25:44;60075.03;;;-140.67;69.47
2294;BME280;1155;42.644;23.264;2023-03-23T19:28:12;60097.56;;;-140.67;66.85
2294;BME280;1155;42.644;23.264;2023-03-23T19:30:43;60093.47;;;-140.67;63.63
2294;BME280;1155;42.644;23.264;2023-03-23T19:33:11;60077.09;;;-140.67;63.79
2294;BME280;1155;42.644;23.264;2023-03-23T19:35:39;60097.56;;;-140.67;62.39
2294;BME280;1155;42.644;23.264;2023-03-23T19:38:06;60120.09;;;-140.67;59.86
2294;BME280;1155;42.644;23.264;2023-03-23T19:40:35;60105.75;;;-140.67;58.63
2294;BME280;1155;42.644;23.264;2023-03-23T19:43:02;60095.50;;;-140.67;55.42
2294;BME280;1155;42.644;23.264;2023-03-23T19:45:32;60093.47;;;-140.67;55.51
2294;BME280;1155;42.644;23.264;2023-03-23T19:47:59;60107.78;;;-140.67;56.16
2294;BME280;1155;42.644;23.264;2023-03-23T19:50:26;60101.66;;;-140.67;63.86
2294;BME280;1155;42.644;23.264;2023-03-23T19:52:53;60085.28;;;-140.67;67.34
2294;BME280;1155;42.644;23.264;2023-03-23T19:55:20;60077.09;;;-140.67;77.38
2294;BME280;1155;42.644;23.264;2023-03-23T19:57:48;60109.84;;;-140.67;82.13
2294;BME280;1155;42.644;23.264;2023-03-23T20:00:16;60124.19;;;-140.67;75.28
2294;BME280;1155;42.644;23.264;2023-03-23T20:02:46;60118.03;;;-140.67;73.79
2294;BME280;1155;42.644;23.264;2023-03-23T20:05:13;60105.75;;;-140.67;74.32
2294;BME280;1155;42.644;23.264;2023-03-23T20:07:40;60126.22;;;-140.67;85.18
2294;BME280;1155;42.644;23.264;2023-03-23T20:10:07;60118.03;;;-140.67;80.08
2294;BME280;1155;42.644;23.264;2023-03-23T20:12:34;60095.50;;;-140.67;78.79
2294;BME280;1155;42.644;23.264;2023-03-23T20:15:03;60089.38;;;-140.67;88.70
2294;BME280;1155;42.644;23.264;2023-03-23T20:17:32;60099.59;;;-140.67;95.67
2294;BME280;1155;42.644;23.264;2023-03-23T20:19:59;60122.13;;;-140.67;99.63
2294;BME280;1155;42.644;23.264;2023-03-23T20:22:26;60132.38;;;-140.67;99.83
2294;BME280;1155;42.644;23.264;2023-03-23T20:24:53;60109.84;;;-140.67;100.00
2294;BME280;1155;42.644;23.264;2023-03-23T20:27:20;60101.66;;;-140.67;100.00
2294;BME280;1155;42.644;23.264;2023-03-23T20:29:46;60103.69;;;-140.67;98.41
2294;BME280;1155;42.644;23.264;2023-03-23T20:32:15;60099.59;;;-140.67;100.00
2294;BME280;1155;42.644;23.264;2023-03-23T20:34:42;60116.00;;;-140.67;91.60
2294;BME280;1155;42.644;23.264;2023-03-23T20:37:14;60134.41;;;-140.67;100.00
2294;BME280;1155;42.644;23.264;2023-03-23T20:39:42;60120.09;;;-140.67;97.41
2294;BME280;1155;42.644;23.264;2023-03-23T20:42:11;60111.91;;;-140.67;99.07
2294;BME280;1155;42.644;23.264;2023-03-23T20:44:38;60101.66;;;-140.67;100.00
2294;BME280;1155;42.644;23.264;2023-03-23T20:47:06;60111.91;;;-140.67;100.00
2294;BME280;1155;42.644;23.264;2023-03-23T20:49:36;60107.78;;;-140.67;100.00
2294;BME280;1155;42.644;23.264;2023-03-23T20:52:05;60089.38;;;-140.67;100.00
2294;BME280;1155;42.644;23.264;2023-03-23T20:54:36;60101.66;;;-140.67;100.00
2294;BME280;1155;42.644;23.264;2023-03-23T20:57:05;60113.94;;;-140.67;100.00
2294;BME280;1155;42.644;23.264;2023-03-23T20:59:34;60101.66;;;-140.67;100.00
2294;BME280;1155;42.644;23.264;2023-03-23T21:02:01;60126.22;;;-140.67;100.00
2294;BME280;1155;42.644;23.264;2023-03-23T21:04:29;60081.19;;;-140.67;100.00
2294;BME280;1155;42.644;23.264;2023-03-23T21:06:58;60124.19;;;-140.67;100.00
2294;BME280;1155;42.644;23.264;2023-03-23T21:09:25;60091.41;;;-140.67;100.00
2294;BME280;1155;42.644;23.264;2023-03-23T21:11:53;60105.75;;;-140.67;100.00
2294;BME280;1155;42.644;23.264;2023-03-23T21:14:21;60118.03;;;-140.67;100.00
2294;BME280;1155;42.644;23.264;2023-03-23T21:16:48;60130.31;;;-140.67;100.00
2294;BME280;1155;42.644;23.264;2023-03-23T21:19:15;60116.00;;;-140.67;100.00
2294;BME280;1155;42.644;23.264;2023-03-23T21:21:44;60146.72;;;-140.67;100.00
2294;BME280;1155;42.644;23.264;2023-03-23T21:24:12;60111.91;;;-140.67;100.00
2294;BME280;1155;42.644;23.264;2023-03-23T21:26:40;60101.66;;;-140.67;100.00
2294;BME280;1155;42.644;23.264;2023-03-23T21:29:07;60126.22;;;-140.67;100.00
2294;BME280;1155;42.644;23.264;2023-03-23T21:31:37;60113.94;;;-140.67;100.00
2294;BME280;1155;42.644;23.264;2023-03-23T21:34:04;60103.69;;;-140.67;100.00
2294;BME280;1155;42.644;23.264;2023-03-23T21:36:31;60097.56;;;-140.67;100.00
2294;BME280;1155;42.644;23.264;2023-03-23T21:38:58;60097.56;;;-140.67;100.00
2294;BME280;1155;42.644;23.264;2023-03-23T21:41:28;60101.66;;;-140.67;100.00
2294;BME280;1155;42.644;23.264;2023-03-23T21:43:56;60093.47;;;-140.67;100.00
2294;BME280;1155;42.644;23.264;2023-03-23T21:46:23;60093.47;;;-140.67;100.00
2294;BME280;1155;42.644;23.264;2023-03-23T21:48:50;60122.13;;;-140.67;100.00
2294;BME280;1155;42.644;23.264;2023-03-23T21:51:20;60101.66;;;-140.67;100.00
2294;BME280;1155;42.644;23.264;2023-03-23T21:53:47;60095.50;;;-140.67;100.00
2294;BME280;1155;42.644;23.264;2023-03-23T21:56:14;60113.94;;;-140.67;100.00
2294;BME280;1155;42.644;23.264;2023-03-23T21:58:43;60105.75;;;-140.67;100.00
2294;BME280;1155;42.644;23.264;2023-03-23T22:01:10;60120.09;;;-140.67;100.00
2294;BME280;1155;42.644;23.264;2023-03-23T22:03:37;60099.59;;;-140.67;100.00
2294;BME280;1155;42.644;23.264;2023-03-23T22:06:07;60109.84;;;-140.67;100.00
2294;BME280;1155;42.644;23.264;2023-03-23T22:08:37;60111.91;;;-140.67;100.00
2294;BME280;1155;42.644;23.264;2023-03-23T22:11:06;60099.59;;;-140.67;100.00
2294;BME280;1155;42.644;23.264;2023-03-23T22:13:35;60116.00;;;-140.67;100.00
2294;BME280;1155;42.644;23.264;2023-03-23T22:16:06;60113.94;;;-140.67;100.00
2294;BME280;1155;42.644;23.264;2023-03-23T22:18:33;60126.22;;;-140.67;100.00
2294;BME280;1155;42.644;23.264;2023-03-23T22:21:00;60109.84;;;-140.67;100.00
2294;BME280;1155;42.644;23.264;2023-03-23T22:23:27;60118.03;;;-140.67;100.00
2294;BME280;1155;42.644;23.264;2023-03-23T22:25:54;60081.19;;;-140.67;100.00
2294;BME280;1155;42.644;23.264;2023-03-23T22:28:22;60095.50;;;-140.67;100.00
2294;BME280;1155;42.644;23.264;2023-03-23T22:30:51;60105.75;;;-140.67;100.00
2294;BME280;1155;42.644;23.264;2023-03-23T22:33:20;60107.78;;;-140.67;100.00
2294;BME280;1155;42.644;23.264;2023-03-23T22:35:48;60118.03;;;-140.67;100.00
2294;BME280;1155;42.644;23.264;2023-03-23T22:38:15;60085.28;;;-140.67;100.00
2294;BME280;1155;42.644;23.264;2023-03-23T22:40:42;60089.38;;;-140.67;100.00
2294;BME280;1155;42.644;23.264;2023-03-23T22:43:09;60120.09;;;-140.67;100.00
2294;BME280;1155;42.644;23.264;2023-03-23T22:45:36;60103.69;;;-140.67;100.00
2294;BME280;1155;42.644;23.264;2023-03-23T22:48:03;60118.03;;;-140.67;100.00
2294;BME280;1155;42.644;23.264;2023-03-23T22:50:33;60105.75;;;-140.67;100.00
2294;BME280;1155;42.644;23.264;2023-03-23T22:53:00;60109.84;;;-140.67;100.00
2294;BME280;1155;42.644;23.264;2023-03-23T22:55:27;60136.47;;;-140.67;100.00
2294;BME280;1155;42.644;23.264;2023-03-23T22:57:54;60116.00;;;-140.67;100.00
2294;BME280;1155;42.644;23.264;2023-03-23T23:00:21;60130.31;;;-140.67;100.00
2294;BME280;1155;42.644;23.264;2023-03-23T23:02:48;60134.41;;;-140.67;100.00
2294;BME280;1155;42.644;23.264;2023-03-23T23:05:15;60109.84;;;-140.67;100.00
2294;BME280;1155;42.644;23.264;2023-03-23T23:07:43;60111.91;;;-140.67;100.00
2294;BME280;1155;42.644;23.264;2023-03-23T23:10:10;60128.28;;;-140.67;100.00
2294;BME280;1155;42.644;23.264;2023-03-23T23:12:37;60113.94;;;-140.67;100.00
2294;BME280;1155;42.644;23.264;2023-03-23T23:15:09;60097.56;;;-140.67;100.00
2294;BME280;1155;42.644;23.264;2023-03-23T23:17:37;60132.38;;;-140.67;100.00
2294;BME280;1155;42.644;23.264;2023-03-23T23:20:05;60109.84;;;-140.67;100.00
2294;BME280;1155;42.644;23.264;2023-03-23T23:22:32;60138.50;;;-140.67;100.00
2294;BME280;1155;42.644;23.264;2023-03-23T23:25:01;60122.13;;;-140.67;100.00
2294;BME280;1155;42.644;23.264;2023-03-23T23:27:28;60136.47;;;-140.67;100.00
2294;BME280;1155;42.644;23.264;2023-03-23T23:29:55;60124.19;;;-140.67;100.00
2294;BME280;1155;42.644;23.264;2023-03-23T23:32:22;60122.13;;;-140.67;100.00
2294;BME280;1155;42.644;23.264;2023-03-23T23:34:49;60107.78;;;-140.67;100.00
2294;BME280;1155;42.644;23.264;2023-03-23T23:37:17;60087.31;;;-140.67;100.00
2294;BME280;1155;42.644;23.264;2023-03-23T23:42:07;60111.91;;;-140.67;100.00
2294;BME280;1155;42.644;23.264;2023-03-23T23:44:34;60130.31;;;-140.67;100.00
2294;BME280;1155;42.644;23.264;2023-03-23T23:47:02;60113.94;;;-140.67;100.00
2294;BME280;1155;42.644;23.264;2023-03-23T23:49:29;60130.31;;;-140.67;100.00
2294;BME280;1155;42.644;23.264;2023-03-23T23:51:58;60109.84;;;-140.67;100.00
2294;BME280;1155;42.644;23.264;2023-03-23T23:54:25;60099.59;;;-140.67;100.00
2294;BME280;1155;42.644;23.264;2023-03-23T23:56:55;60107.78;;;-140.67;100.00
2294;BME280;1155;42.644;23.264;2023-03-23T23:59:24;60099.59;;;-140.67;100.00
